sensor_id;sensor_type;location;lat;lon;timestamp;temperature;humidity
13251;DHT22;6692;50.710;7.180;2023-04-06T00:01:19;4.20;99.90
13251;DHT22;6692;50.710;7.180;2023-04-06T00:03:19;4.20;99.90
13251;DHT22;6692;50.710;7.180;2023-04-06T00:05:20;4.20;99.90
13251;DHT22;6692;50.710;7.180;2023-04-06T00:07:21;4.10;99.90
13251;DHT22;6692;50.710;7.180;2023-04-06T00:09:21;4.10;99.90
13251;DHT22;6692;50.710;7.180;2023-04-06T00:11:22;4.10;99.90
13251;DHT22;6692;50.710;7.180;2023-04-06T00:13:23;4.10;99.90
13251;DHT22;6692;50.710;7.180;2023-04-06T00:15:24;4.10;99.90
13251;DHT22;6692;50.710;7.180;2023-04-06T00:17:24;4.10;99.90
13251;DHT22;6692;50.710;7.180;2023-04-06T00:19:25;4.10;99.90
13251;DHT22;6692;50.710;7.180;2023-04-06T00:21:26;4.10;99.90
13251;DHT22;6692;50.710;7.180;2023-04-06T00:23:26;4.10;99.90
13251;DHT22;6692;50.710;7.180;2023-04-06T00:25:27;4.10;99.90
13251;DHT22;6692;50.710;7.180;2023-04-06T00:27:28;4.10;99.90
13251;DHT22;6692;50.710;7.180;2023-04-06T00:29:29;4.00;99.90
13251;DHT22;6692;50.710;7.180;2023-04-06T00:31:30;4.00;99.90
13251;DHT22;6692;50.710;7.180;2023-04-06T00:33:30;4.00;99.90
13251;DHT22;6692;50.710;7.180;2023-04-06T00:35:32;4.00;99.90
13251;DHT22;6692;50.710;7.180;2023-04-06T00:37:33;4.00;99.90
13251;DHT22;6692;50.710;7.180;2023-04-06T00:39:34;4.00;99.90
13251;DHT22;6692;50.710;7.180;2023-04-06T00:41:35;4.00;99.90
13251;DHT22;6692;50.710;7.180;2023-04-06T00:43:36;4.00;99.90
13251;DHT22;6692;50.710;7.180;2023-04-06T00:45:39;3.90;99.90
13251;DHT22;6692;50.710;7.180;2023-04-06T00:47:39;3.90;99.90
13251;DHT22;6692;50.710;7.180;2023-04-06T00:49:40;3.90;99.90
13251;DHT22;6692;50.710;7.180;2023-04-06T00:51:41;3.90;99.90
13251;DHT22;6692;50.710;7.180;2023-04-06T00:53:41;3.90;99.90
13251;DHT22;6692;50.710;7.180;2023-04-06T00:55:42;3.90;99.90
13251;DHT22;6692;50.710;7.180;2023-04-06T00:57:44;3.80;99.90
13251;DHT22;6692;50.710;7.180;2023-04-06T00:59:44;3.80;99.90
13251;DHT22;6692;50.710;7.180;2023-04-06T01:01:45;3.80;99.90
13251;DHT22;6692;50.710;7.180;2023-04-06T01:03:47;3.80;99.90
13251;DHT22;6692;50.710;7.180;2023-04-06T01:05:47;3.80;99.90
13251;DHT22;6692;50.710;7.180;2023-04-06T01:07:48;3.80;99.90
13251;DHT22;6692;50.710;7.180;2023-04-06T01:09:48;3.80;99.90
13251;DHT22;6692;50.710;7.180;2023-04-06T01:11:50;3.80;99.90
13251;DHT22;6692;50.710;7.180;2023-04-06T01:13:50;3.70;99.90
13251;DHT22;6692;50.710;7.180;2023-04-06T01:15:51;3.80;99.90
13251;DHT22;6692;50.710;7.180;2023-04-06T01:17:53;3.70;99.90
13251;DHT22;6692;50.710;7.180;2023-04-06T01:19:53;3.70;99.90
13251;DHT22;6692;50.710;7.180;2023-04-06T01:21:54;3.80;99.90
13251;DHT22;6692;50.710;7.180;2023-04-06T01:23:55;3.70;99.90
13251;DHT22;6692;50.710;7.180;2023-04-06T01:25:56;3.70;99.90
13251;DHT22;6692;50.710;7.180;2023-04-06T01:27:57;3.70;99.90
13251;DHT22;6692;50.710;7.180;2023-04-06T01:29:57;3.70;99.90
13251;DHT22;6692;50.710;7.180;2023-04-06T01:31:58;3.70;99.90
13251;DHT22;6692;50.710;7.180;2023-04-06T01:33:59;3.70;99.90
13251;DHT22;6692;50.710;7.180;2023-04-06T01:35:59;3.70;99.90
13251;DHT22;6692;50.710;7.180;2023-04-06T01:38:00;3.70;99.90
13251;DHT22;6692;50.710;7.180;2023-04-06T01:40:02;3.70;99.90
13251;DHT22;6692;50.710;7.180;2023-04-06T01:42:03;3.60;99.90
13251;DHT22;6692;50.710;7.180;2023-04-06T01:44:04;3.60;99.90
13251;DHT22;6692;50.710;7.180;2023-04-06T01:46:05;3.60;99.90
13251;DHT22;6692;50.710;7.180;2023-04-06T01:48:07;3.70;99.90
13251;DHT22;6692;50.710;7.180;2023-04-06T01:50:07;3.60;99.90
13251;DHT22;6692;50.710;7.180;2023-04-06T01:52:08;3.70;99.90
13251;DHT22;6692;50.710;7.180;2023-04-06T01:54:09;3.70;99.90
13251;DHT22;6692;50.710;7.180;2023-04-06T01:56:10;3.60;99.90
13251;DHT22;6692;50.710;7.180;2023-04-06T01:58:11;3.60;99.90
13251;DHT22;6692;50.710;7.180;2023-04-06T02:00:12;3.60;99.90
13251;DHT22;6692;50.710;7.180;2023-04-06T02:02:13;3.60;99.90
13251;DHT22;6692;50.710;7.180;2023-04-06T02:04:15;3.60;99.90
13251;DHT22;6692;50.710;7.180;2023-04-06T02:06:15;3.60;99.90
13251;DHT22;6692;50.710;7.180;2023-04-06T02:08:16;3.70;99.90
13251;DHT22;6692;50.710;7.180;2023-04-06T02:10:17;3.70;99.90
13251;DHT22;6692;50.710;7.180;2023-04-06T02:12:18;3.60;99.90
13251;DHT22;6692;50.710;7.180;2023-04-06T02:14:18;3.60;99.90
13251;DHT22;6692;50.710;7.180;2023-04-06T02:16:19;3.70;99.90
13251;DHT22;6692;50.710;7.180;2023-04-06T02:18:20;3.60;99.90
13251;DHT22;6692;50.710;7.180;2023-04-06T02:20:20;3.60;99.90
13251;DHT22;6692;50.710;7.180;2023-04-06T02:22:21;3.70;99.90
13251;DHT22;6692;50.710;7.180;2023-04-06T02:24:22;3.70;99.90
13251;DHT22;6692;50.710;7.180;2023-04-06T02:26:22;3.70;99.90
13251;DHT22;6692;50.710;7.180;2023-04-06T02:28:23;3.70;99.90
13251;DHT22;6692;50.710;7.180;2023-04-06T02:30:24;3.70;99.90
13251;DHT22;6692;50.710;7.180;2023-04-06T02:32:24;3.70;99.90
13251;DHT22;6692;50.710;7.180;2023-04-06T02:34:25;3.70;99.90
13251;DHT22;6692;50.710;7.180;2023-04-06T02:36:26;3.70;99.90
13251;DHT22;6692;50.710;7.180;2023-04-06T02:38:26;3.70;99.90
13251;DHT22;6692;50.710;7.180;2023-04-06T02:40:27;3.70;99.90
13251;DHT22;6692;50.710;7.180;2023-04-06T02:42:28;3.70;99.90
13251;DHT22;6692;50.710;7.180;2023-04-06T02:44:29;3.70;99.90
13251;DHT22;6692;50.710;7.180;2023-04-06T02:46:34;3.70;99.90
13251;DHT22;6692;50.710;7.180;2023-04-06T02:48:35;3.60;99.90
13251;DHT22;6692;50.710;7.180;2023-04-06T02:50:36;3.60;99.90
13251;DHT22;6692;50.710;7.180;2023-04-06T02:52:37;3.60;99.90
13251;DHT22;6692;50.710;7.180;2023-04-06T02:54:37;3.60;99.90
13251;DHT22;6692;50.710;7.180;2023-04-06T02:56:38;3.60;99.90
13251;DHT22;6692;50.710;7.180;2023-04-06T02:58:39;3.60;99.90
13251;DHT22;6692;50.710;7.180;2023-04-06T03:00:39;3.50;99.90
13251;DHT22;6692;50.710;7.180;2023-04-06T03:02:41;3.60;99.90
13251;DHT22;6692;50.710;7.180;2023-04-06T03:04:42;3.50;99.90
13251;DHT22;6692;50.710;7.180;2023-04-06T03:06:43;3.60;99.90
13251;DHT22;6692;50.710;7.180;2023-04-06T03:08:44;3.60;99.90
13251;DHT22;6692;50.710;7.180;2023-04-06T03:10:45;3.60;99.90
13251;DHT22;6692;50.710;7.180;2023-04-06T03:12:45;3.60;99.90
13251;DHT22;6692;50.710;7.180;2023-04-06T03:14:47;3.60;99.90
13251;DHT22;6692;50.710;7.180;2023-04-06T03:16:48;3.50;99.90
13251;DHT22;6692;50.710;7.180;2023-04-06T03:18:48;3.50;99.90
13251;DHT22;6692;50.710;7.180;2023-04-06T03:20:49;3.50;99.90
13251;DHT22;6692;50.710;7.180;2023-04-06T03:22:49;3.50;99.90
13251;DHT22;6692;50.710;7.180;2023-04-06T03:24:51;3.40;99.90
13251;DHT22;6692;50.710;7.180;2023-04-06T03:26:52;3.40;99.90
13251;DHT22;6692;50.710;7.180;2023-04-06T03:28:53;3.50;99.90
13251;DHT22;6692;50.710;7.180;2023-04-06T03:30:54;3.50;99.90
13251;DHT22;6692;50.710;7.180;2023-04-06T03:32:54;3.50;99.90
13251;DHT22;6692;50.710;7.180;2023-04-06T03:34:55;3.50;99.90
13251;DHT22;6692;50.710;7.180;2023-04-06T03:36:56;3.50;99.90
13251;DHT22;6692;50.710;7.180;2023-04-06T03:38:57;3.50;99.90
13251;DHT22;6692;50.710;7.180;2023-04-06T03:40:58;3.50;99.90
13251;DHT22;6692;50.710;7.180;2023-04-06T03:42:59;3.50;99.90
13251;DHT22;6692;50.710;7.180;2023-04-06T03:45:00;3.50;99.90
13251;DHT22;6692;50.710;7.180;2023-04-06T03:47:00;3.50;99.90
13251;DHT22;6692;50.710;7.180;2023-04-06T03:49:01;3.60;99.90
13251;DHT22;6692;50.710;7.180;2023-04-06T03:51:03;3.60;99.90
13251;DHT22;6692;50.710;7.180;2023-04-06T03:53:04;3.50;99.90
13251;DHT22;6692;50.710;7.180;2023-04-06T03:55:06;3.50;99.90
13251;DHT22;6692;50.710;7.180;2023-04-06T03:57:07;3.50;99.90
13251;DHT22;6692;50.710;7.180;2023-04-06T03:59:07;3.50;99.90
13251;DHT22;6692;50.710;7.180;2023-04-06T04:01:09;3.50;99.90
13251;DHT22;6692;50.710;7.180;2023-04-06T04:03:10;3.50;99.90
13251;DHT22;6692;50.710;7.180;2023-04-06T04:05:10;3.50;99.90
13251;DHT22;6692;50.710;7.180;2023-04-06T04:07:11;3.50;99.90
13251;DHT22;6692;50.710;7.180;2023-04-06T04:09:12;3.40;99.90
13251;DHT22;6692;50.710;7.180;2023-04-06T04:11:13;3.30;99.90
13251;DHT22;6692;50.710;7.180;2023-04-06T04:13:14;3.30;99.90
13251;DHT22;6692;50.710;7.180;2023-04-06T04:15:14;3.30;99.90
13251;DHT22;6692;50.710;7.180;2023-04-06T04:17:16;3.30;99.90
13251;DHT22;6692;50.710;7.180;2023-04-06T04:19:17;3.30;99.90
13251;DHT22;6692;50.710;7.180;2023-04-06T04:21:17;3.20;99.90
13251;DHT22;6692;50.710;7.180;2023-04-06T04:23:18;3.30;99.90
13251;DHT22;6692;50.710;7.180;2023-04-06T04:25:19;3.20;99.90
13251;DHT22;6692;50.710;7.180;2023-04-06T04:27:19;3.20;99.90
13251;DHT22;6692;50.710;7.180;2023-04-06T04:29:21;3.10;99.90
13251;DHT22;6692;50.710;7.180;2023-04-06T04:31:21;3.10;99.90
13251;DHT22;6692;50.710;7.180;2023-04-06T04:33:22;3.10;99.90
13251;DHT22;6692;50.710;7.180;2023-04-06T04:35:23;3.10;99.90
13251;DHT22;6692;50.710;7.180;2023-04-06T04:37:23;3.00;99.90
13251;DHT22;6692;50.710;7.180;2023-04-06T04:39:24;3.00;99.90
13251;DHT22;6692;50.710;7.180;2023-04-06T04:41:25;3.00;99.90
13251;DHT22;6692;50.710;7.180;2023-04-06T04:43:26;3.00;99.90
13251;DHT22;6692;50.710;7.180;2023-04-06T04:45:26;2.90;99.90
13251;DHT22;6692;50.710;7.180;2023-04-06T04:47:27;2.90;99.90
13251;DHT22;6692;50.710;7.180;2023-04-06T04:49:28;2.90;99.90
13251;DHT22;6692;50.710;7.180;2023-04-06T04:51:28;2.80;99.90
13251;DHT22;6692;50.710;7.180;2023-04-06T04:53:30;2.80;99.90
13251;DHT22;6692;50.710;7.180;2023-04-06T04:55:31;2.90;99.90
13251;DHT22;6692;50.710;7.180;2023-04-06T04:57:31;2.80;99.90
13251;DHT22;6692;50.710;7.180;2023-04-06T04:59:33;2.90;99.90
13251;DHT22;6692;50.710;7.180;2023-04-06T05:01:33;2.80;99.90
13251;DHT22;6692;50.710;7.180;2023-04-06T05:03:34;2.90;99.90
13251;DHT22;6692;50.710;7.180;2023-04-06T05:05:35;2.90;99.90
13251;DHT22;6692;50.710;7.180;2023-04-06T05:07:36;2.90;99.90
13251;DHT22;6692;50.710;7.180;2023-04-06T05:09:36;2.80;99.90
13251;DHT22;6692;50.710;7.180;2023-04-06T05:11:37;2.80;99.90
13251;DHT22;6692;50.710;7.180;2023-04-06T05:13:38;2.80;99.90
13251;DHT22;6692;50.710;7.180;2023-04-06T05:15:40;2.80;99.90
13251;DHT22;6692;50.710;7.180;2023-04-06T05:17:41;2.80;99.90
13251;DHT22;6692;50.710;7.180;2023-04-06T05:19:41;2.80;99.90
13251;DHT22;6692;50.710;7.180;2023-04-06T05:21:42;2.80;99.90
13251;DHT22;6692;50.710;7.180;2023-04-06T05:23:43;2.90;99.90
13251;DHT22;6692;50.710;7.180;2023-04-06T05:25:43;2.90;99.90
13251;DHT22;6692;50.710;7.180;2023-04-06T05:27:45;3.00;99.90
13251;DHT22;6692;50.710;7.180;2023-04-06T05:29:45;3.00;99.90
13251;DHT22;6692;50.710;7.180;2023-04-06T05:31:46;3.00;99.90
13251;DHT22;6692;50.710;7.180;2023-04-06T05:33:47;3.00;99.90
13251;DHT22;6692;50.710;7.180;2023-04-06T05:35:47;3.00;99.90
13251;DHT22;6692;50.710;7.180;2023-04-06T05:37:48;3.00;99.90
13251;DHT22;6692;50.710;7.180;2023-04-06T05:39:49;3.10;99.90
13251;DHT22;6692;50.710;7.180;2023-04-06T05:41:49;3.10;99.90
13251;DHT22;6692;50.710;7.180;2023-04-06T05:43:50;3.10;99.90
13251;DHT22;6692;50.710;7.180;2023-04-06T05:45:51;3.20;99.90
13251;DHT22;6692;50.710;7.180;2023-04-06T05:47:52;3.30;99.90
13251;DHT22;6692;50.710;7.180;2023-04-06T05:49:53;3.30;99.90
13251;DHT22;6692;50.710;7.180;2023-04-06T05:51:54;3.30;99.90
13251;DHT22;6692;50.710;7.180;2023-04-06T05:53:55;3.40;99.90
13251;DHT22;6692;50.710;7.180;2023-04-06T05:55:55;3.40;99.90
13251;DHT22;6692;50.710;7.180;2023-04-06T05:57:56;3.50;99.90
13251;DHT22;6692;50.710;7.180;2023-04-06T05:59:57;3.50;99.90
13251;DHT22;6692;50.710;7.180;2023-04-06T06:01:57;3.50;99.90
13251;DHT22;6692;50.710;7.180;2023-04-06T06:04:00;3.60;99.90
13251;DHT22;6692;50.710;7.180;2023-04-06T06:06:01;3.60;99.90
13251;DHT22;6692;50.710;7.180;2023-04-06T06:08:02;3.70;99.90
13251;DHT22;6692;50.710;7.180;2023-04-06T06:10:02;3.70;99.90
13251;DHT22;6692;50.710;7.180;2023-04-06T06:12:04;3.80;99.90
13251;DHT22;6692;50.710;7.180;2023-04-06T06:14:05;3.80;99.90
13251;DHT22;6692;50.710;7.180;2023-04-06T06:16:06;3.80;99.90
13251;DHT22;6692;50.710;7.180;2023-04-06T06:18:06;3.90;99.90
13251;DHT22;6692;50.710;7.180;2023-04-06T06:20:08;3.90;99.90
13251;DHT22;6692;50.710;7.180;2023-04-06T06:22:09;4.00;99.90
13251;DHT22;6692;50.710;7.180;2023-04-06T06:24:10;4.00;99.90
13251;DHT22;6692;50.710;7.180;2023-04-06T06:26:11;4.10;99.90
13251;DHT22;6692;50.710;7.180;2023-04-06T06:28:13;4.10;99.90
13251;DHT22;6692;50.710;7.180;2023-04-06T06:30:13;4.10;99.90
13251;DHT22;6692;50.710;7.180;2023-04-06T06:32:14;4.10;99.90
13251;DHT22;6692;50.710;7.180;2023-04-06T06:34:14;4.20;99.90
13251;DHT22;6692;50.710;7.180;2023-04-06T06:36:16;4.30;99.90
13251;DHT22;6692;50.710;7.180;2023-04-06T06:38:16;4.30;99.90
13251;DHT22;6692;50.710;7.180;2023-04-06T06:40:17;4.30;99.90
13251;DHT22;6692;50.710;7.180;2023-04-06T06:42:17;4.40;99.90
13251;DHT22;6692;50.710;7.180;2023-04-06T06:44:18;4.50;99.90
13251;DHT22;6692;50.710;7.180;2023-04-06T06:46:20;4.60;99.90
13251;DHT22;6692;50.710;7.180;2023-04-06T06:48:20;4.60;99.90
13251;DHT22;6692;50.710;7.180;2023-04-06T06:50:21;4.70;99.90
13251;DHT22;6692;50.710;7.180;2023-04-06T06:52:21;4.70;99.90
13251;DHT22;6692;50.710;7.180;2023-04-06T06:54:23;4.80;99.90
13251;DHT22;6692;50.710;7.180;2023-04-06T06:56:24;4.80;99.90
13251;DHT22;6692;50.710;7.180;2023-04-06T06:58:24;4.80;99.90
13251;DHT22;6692;50.710;7.180;2023-04-06T07:00:25;4.90;99.90
13251;DHT22;6692;50.710;7.180;2023-04-06T07:02:26;5.00;99.90
13251;DHT22;6692;50.710;7.180;2023-04-06T07:04:27;5.00;99.90
13251;DHT22;6692;50.710;7.180;2023-04-06T07:06:28;5.10;99.90
13251;DHT22;6692;50.710;7.180;2023-04-06T07:08:28;5.20;99.90
13251;DHT22;6692;50.710;7.180;2023-04-06T07:10:29;5.20;99.90
13251;DHT22;6692;50.710;7.180;2023-04-06T07:12:30;5.30;99.90
13251;DHT22;6692;50.710;7.180;2023-04-06T07:14:31;5.40;99.90
13251;DHT22;6692;50.710;7.180;2023-04-06T07:16:32;5.40;99.90
13251;DHT22;6692;50.710;7.180;2023-04-06T07:18:32;5.40;99.90
13251;DHT22;6692;50.710;7.180;2023-04-06T07:20:34;5.50;99.90
13251;DHT22;6692;50.710;7.180;2023-04-06T07:22:34;5.50;99.90
13251;DHT22;6692;50.710;7.180;2023-04-06T07:24:35;5.60;99.90
13251;DHT22;6692;50.710;7.180;2023-04-06T07:26:36;5.70;99.90
13251;DHT22;6692;50.710;7.180;2023-04-06T07:28:37;5.80;99.90
13251;DHT22;6692;50.710;7.180;2023-04-06T07:30:38;5.80;99.90
13251;DHT22;6692;50.710;7.180;2023-04-06T07:32:39;5.90;99.90
13251;DHT22;6692;50.710;7.180;2023-04-06T07:34:40;6.00;99.90
13251;DHT22;6692;50.710;7.180;2023-04-06T07:36:41;6.00;99.90
13251;DHT22;6692;50.710;7.180;2023-04-06T07:38:41;6.20;99.90
13251;DHT22;6692;50.710;7.180;2023-04-06T07:40:43;6.30;99.90
13251;DHT22;6692;50.710;7.180;2023-04-06T07:42:43;6.30;99.90
13251;DHT22;6692;50.710;7.180;2023-04-06T07:44:44;6.40;99.90
13251;DHT22;6692;50.710;7.180;2023-04-06T07:46:45;6.60;99.90
13251;DHT22;6692;50.710;7.180;2023-04-06T07:48:46;6.60;99.90
13251;DHT22;6692;50.710;7.180;2023-04-06T07:50:47;6.60;99.90
13251;DHT22;6692;50.710;7.180;2023-04-06T07:52:47;6.70;99.90
13251;DHT22;6692;50.710;7.180;2023-04-06T07:54:48;6.80;99.90
13251;DHT22;6692;50.710;7.180;2023-04-06T07:56:49;6.90;99.90
13251;DHT22;6692;50.710;7.180;2023-04-06T07:58:49;7.00;99.90
13251;DHT22;6692;50.710;7.180;2023-04-06T08:00:50;7.20;99.90
13251;DHT22;6692;50.710;7.180;2023-04-06T08:02:52;7.50;99.90
13251;DHT22;6692;50.710;7.180;2023-04-06T08:04:52;7.50;99.90
13251;DHT22;6692;50.710;7.180;2023-04-06T08:06:53;7.70;99.90
13251;DHT22;6692;50.710;7.180;2023-04-06T08:08:54;8.10;99.90
13251;DHT22;6692;50.710;7.180;2023-04-06T08:10:56;8.30;99.90
13251;DHT22;6692;50.710;7.180;2023-04-06T08:12:56;8.20;99.90
13251;DHT22;6692;50.710;7.180;2023-04-06T08:14:57;8.50;99.90
13251;DHT22;6692;50.710;7.180;2023-04-06T08:16:59;8.70;99.90
13251;DHT22;6692;50.710;7.180;2023-04-06T08:18:59;8.70;99.90
13251;DHT22;6692;50.710;7.180;2023-04-06T08:21:00;8.70;99.90
13251;DHT22;6692;50.710;7.180;2023-04-06T08:23:01;8.80;99.90
13251;DHT22;6692;50.710;7.180;2023-04-06T08:25:02;8.80;99.90
13251;DHT22;6692;50.710;7.180;2023-04-06T08:27:04;8.80;99.90
13251;DHT22;6692;50.710;7.180;2023-04-06T08:29:04;8.80;99.90
13251;DHT22;6692;50.710;7.180;2023-04-06T08:31:06;8.80;99.90
13251;DHT22;6692;50.710;7.180;2023-04-06T08:33:06;8.80;99.90
13251;DHT22;6692;50.710;7.180;2023-04-06T08:35:08;8.90;99.90
13251;DHT22;6692;50.710;7.180;2023-04-06T08:37:08;8.90;99.90
13251;DHT22;6692;50.710;7.180;2023-04-06T08:39:09;8.90;99.90
13251;DHT22;6692;50.710;7.180;2023-04-06T08:41:10;9.00;99.90
13251;DHT22;6692;50.710;7.180;2023-04-06T08:43:12;9.10;99.90
13251;DHT22;6692;50.710;7.180;2023-04-06T08:45:12;9.10;99.90
13251;DHT22;6692;50.710;7.180;2023-04-06T08:47:12;9.10;99.90
13251;DHT22;6692;50.710;7.180;2023-04-06T08:49:13;9.20;99.90
13251;DHT22;6692;50.710;7.180;2023-04-06T08:51:14;9.20;99.90
13251;DHT22;6692;50.710;7.180;2023-04-06T08:53:15;9.20;99.90
13251;DHT22;6692;50.710;7.180;2023-04-06T08:55:16;9.20;99.90
13251;DHT22;6692;50.710;7.180;2023-04-06T08:57:17;9.30;99.90
13251;DHT22;6692;50.710;7.180;2023-04-06T08:59:17;9.30;99.90
13251;DHT22;6692;50.710;7.180;2023-04-06T09:01:20;9.40;99.90
13251;DHT22;6692;50.710;7.180;2023-04-06T09:03:19;9.40;99.90
13251;DHT22;6692;50.710;7.180;2023-04-06T09:05:19;9.50;99.90
13251;DHT22;6692;50.710;7.180;2023-04-06T09:07:20;9.50;99.90
13251;DHT22;6692;50.710;7.180;2023-04-06T09:09:21;9.60;99.90
13251;DHT22;6692;50.710;7.180;2023-04-06T09:11:22;9.60;99.90
13251;DHT22;6692;50.710;7.180;2023-04-06T09:13:22;9.70;99.90
13251;DHT22;6692;50.710;7.180;2023-04-06T09:15:23;9.80;99.90
13251;DHT22;6692;50.710;7.180;2023-04-06T09:17:25;10.00;99.90
13251;DHT22;6692;50.710;7.180;2023-04-06T09:19:25;9.90;99.90
13251;DHT22;6692;50.710;7.180;2023-04-06T09:21:25;10.10;99.90
13251;DHT22;6692;50.710;7.180;2023-04-06T09:23:26;10.20;99.90
13251;DHT22;6692;50.710;7.180;2023-04-06T09:25:28;10.40;99.90
13251;DHT22;6692;50.710;7.180;2023-04-06T09:27:31;10.50;99.90
13251;DHT22;6692;50.710;7.180;2023-04-06T09:29:31;10.50;99.90
13251;DHT22;6692;50.710;7.180;2023-04-06T09:31:32;10.60;99.90
13251;DHT22;6692;50.710;7.180;2023-04-06T09:33:33;10.60;99.90
13251;DHT22;6692;50.710;7.180;2023-04-06T09:35:33;10.60;99.90
13251;DHT22;6692;50.710;7.180;2023-04-06T09:37:34;10.60;99.90
13251;DHT22;6692;50.710;7.180;2023-04-06T09:39:35;10.70;99.90
13251;DHT22;6692;50.710;7.180;2023-04-06T09:41:36;10.80;99.90
13251;DHT22;6692;50.710;7.180;2023-04-06T09:43:37;11.00;99.90
13251;DHT22;6692;50.710;7.180;2023-04-06T09:45:37;11.00;99.90
13251;DHT22;6692;50.710;7.180;2023-04-06T09:47:39;11.10;99.90
13251;DHT22;6692;50.710;7.180;2023-04-06T09:49:40;11.40;99.90
13251;DHT22;6692;50.710;7.180;2023-04-06T09:51:41;11.40;99.90
13251;DHT22;6692;50.710;7.180;2023-04-06T09:53:41;11.60;99.90
13251;DHT22;6692;50.710;7.180;2023-04-06T09:55:42;11.70;99.90
13251;DHT22;6692;50.710;7.180;2023-04-06T09:57:45;11.90;99.90
13251;DHT22;6692;50.710;7.180;2023-04-06T09:59:58;12.00;99.90
13251;DHT22;6692;50.710;7.180;2023-04-06T10:01:55;12.10;99.90
13251;DHT22;6692;50.710;7.180;2023-04-06T10:04:09;12.10;99.90
13251;DHT22;6692;50.710;7.180;2023-04-06T10:06:10;12.20;99.90
13251;DHT22;6692;50.710;7.180;2023-04-06T10:08:09;12.20;99.90
13251;DHT22;6692;50.710;7.180;2023-04-06T10:10:09;12.30;99.90
13251;DHT22;6692;50.710;7.180;2023-04-06T10:12:10;12.30;99.90
13251;DHT22;6692;50.710;7.180;2023-04-06T10:14:11;12.50;99.90
13251;DHT22;6692;50.710;7.180;2023-04-06T10:16:13;12.50;99.90
13251;DHT22;6692;50.710;7.180;2023-04-06T10:18:14;12.50;99.90
13251;DHT22;6692;50.710;7.180;2023-04-06T10:20:18;12.50;99.90
13251;DHT22;6692;50.710;7.180;2023-04-06T10:22:20;12.70;99.90
13251;DHT22;6692;50.710;7.180;2023-04-06T10:24:19;12.70;99.90
13251;DHT22;6692;50.710;7.180;2023-04-06T10:26:20;12.70;99.90
13251;DHT22;6692;50.710;7.180;2023-04-06T10:28:21;12.80;99.90
13251;DHT22;6692;50.710;7.180;2023-04-06T10:30:21;12.80;99.90
13251;DHT22;6692;50.710;7.180;2023-04-06T10:32:31;12.90;99.90
13251;DHT22;6692;50.710;7.180;2023-04-06T10:34:23;12.90;99.90
13251;DHT22;6692;50.710;7.180;2023-04-06T10:36:25;13.00;99.90
13251;DHT22;6692;50.710;7.180;2023-04-06T10:38:33;13.10;99.90
13251;DHT22;6692;50.710;7.180;2023-04-06T10:40:36;13.20;99.90
13251;DHT22;6692;50.710;7.180;2023-04-06T10:42:37;13.20;99.90
13251;DHT22;6692;50.710;7.180;2023-04-06T10:44:41;13.20;99.90
13251;DHT22;6692;50.710;7.180;2023-04-06T10:46:38;13.40;99.90
13251;DHT22;6692;50.710;7.180;2023-04-06T10:48:42;13.50;99.90
13251;DHT22;6692;50.710;7.180;2023-04-06T10:50:46;13.60;99.90
13251;DHT22;6692;50.710;7.180;2023-04-06T10:52:45;13.70;99.90
13251;DHT22;6692;50.710;7.180;2023-04-06T10:54:46;13.80;99.90
13251;DHT22;6692;50.710;7.180;2023-04-06T10:56:47;13.80;99.90
13251;DHT22;6692;50.710;7.180;2023-04-06T10:58:48;13.80;99.90
13251;DHT22;6692;50.710;7.180;2023-04-06T11:00:49;14.00;99.90
13251;DHT22;6692;50.710;7.180;2023-04-06T11:02:49;14.00;99.90
13251;DHT22;6692;50.710;7.180;2023-04-06T11:04:53;14.30;99.90
13251;DHT22;6692;50.710;7.180;2023-04-06T11:06:53;14.30;99.90
13251;DHT22;6692;50.710;7.180;2023-04-06T11:08:54;14.40;99.90
13251;DHT22;6692;50.710;7.180;2023-04-06T11:11:05;14.50;99.90
13251;DHT22;6692;50.710;7.180;2023-04-06T11:13:05;14.50;99.90
13251;DHT22;6692;50.710;7.180;2023-04-06T11:15:07;14.60;99.90
13251;DHT22;6692;50.710;7.180;2023-04-06T11:17:08;14.60;99.90
13251;DHT22;6692;50.710;7.180;2023-04-06T11:19:09;14.60;99.90
13251;DHT22;6692;50.710;7.180;2023-04-06T11:21:10;14.60;99.90
13251;DHT22;6692;50.710;7.180;2023-04-06T11:23:10;14.60;99.90
13251;DHT22;6692;50.710;7.180;2023-04-06T11:25:12;14.60;97.60
13251;DHT22;6692;50.710;7.180;2023-04-06T11:27:12;14.60;97.60
13251;DHT22;6692;50.710;7.180;2023-04-06T11:29:14;14.80;98.30
13251;DHT22;6692;50.710;7.180;2023-04-06T11:31:14;14.80;99.90
13251;DHT22;6692;50.710;7.180;2023-04-06T11:33:20;14.90;98.30
13251;DHT22;6692;50.710;7.180;2023-04-06T11:35:21;14.80;96.70
13251;DHT22;6692;50.710;7.180;2023-04-06T11:37:22;14.80;94.60
13251;DHT22;6692;50.710;7.180;2023-04-06T11:39:23;14.80;94.60
13251;DHT22;6692;50.710;7.180;2023-04-06T11:41:24;14.80;93.90
13251;DHT22;6692;50.710;7.180;2023-04-06T11:43:32;14.80;94.40
13251;DHT22;6692;50.710;7.180;2023-04-06T11:45:41;14.80;93.80
13251;DHT22;6692;50.710;7.180;2023-04-06T11:47:40;14.80;96.70
13251;DHT22;6692;50.710;7.180;2023-04-06T11:49:42;14.80;96.70
13251;DHT22;6692;50.710;7.180;2023-04-06T11:51:42;14.90;95.40
13251;DHT22;6692;50.710;7.180;2023-04-06T11:53:44;14.90;95.20
13251;DHT22;6692;50.710;7.180;2023-04-06T11:55:44;15.00;95.10
13251;DHT22;6692;50.710;7.180;2023-04-06T11:57:46;15.00;94.80
13251;DHT22;6692;50.710;7.180;2023-04-06T11:59:46;15.00;94.50
13251;DHT22;6692;50.710;7.180;2023-04-06T12:01:47;15.10;93.20
13251;DHT22;6692;50.710;7.180;2023-04-06T12:03:48;15.10;93.20
13251;DHT22;6692;50.710;7.180;2023-04-06T12:05:48;15.20;95.00
13251;DHT22;6692;50.710;7.180;2023-04-06T12:07:49;15.30;96.00
13251;DHT22;6692;50.710;7.180;2023-04-06T12:09:50;15.40;96.70
13251;DHT22;6692;50.710;7.180;2023-04-06T12:11:51;15.40;96.40
13251;DHT22;6692;50.710;7.180;2023-04-06T12:13:53;15.40;97.50
13251;DHT22;6692;50.710;7.180;2023-04-06T12:15:53;15.40;97.50
13251;DHT22;6692;50.710;7.180;2023-04-06T12:17:54;15.40;98.10
13251;DHT22;6692;50.710;7.180;2023-04-06T12:19:54;15.50;98.20
13251;DHT22;6692;50.710;7.180;2023-04-06T12:21:56;15.40;95.50
13251;DHT22;6692;50.710;7.180;2023-04-06T12:23:57;15.40;95.50
13251;DHT22;6692;50.710;7.180;2023-04-06T12:25:57;15.50;96.70
13251;DHT22;6692;50.710;7.180;2023-04-06T12:27:58;15.50;95.40
13251;DHT22;6692;50.710;7.180;2023-04-06T12:29:59;15.60;92.60
13251;DHT22;6692;50.710;7.180;2023-04-06T12:32:00;15.60;92.80
13251;DHT22;6692;50.710;7.180;2023-04-06T12:34:01;15.60;90.50
13251;DHT22;6692;50.710;7.180;2023-04-06T12:36:02;15.70;90.60
13251;DHT22;6692;50.710;7.180;2023-04-06T12:38:04;15.80;92.00
13251;DHT22;6692;50.710;7.180;2023-04-06T12:40:05;15.70;91.90
13251;DHT22;6692;50.710;7.180;2023-04-06T12:42:07;15.90;90.80
13251;DHT22;6692;50.710;7.180;2023-04-06T12:44:07;15.90;90.70
13251;DHT22;6692;50.710;7.180;2023-04-06T12:46:09;15.90;85.30
13251;DHT22;6692;50.710;7.180;2023-04-06T12:48:10;15.90;85.30
13251;DHT22;6692;50.710;7.180;2023-04-06T12:50:10;16.00;86.60
13251;DHT22;6692;50.710;7.180;2023-04-06T12:52:12;16.00;86.60
13251;DHT22;6692;50.710;7.180;2023-04-06T12:54:12;16.00;86.60
13251;DHT22;6692;50.710;7.180;2023-04-06T12:56:14;16.00;88.80
13251;DHT22;6692;50.710;7.180;2023-04-06T12:58:14;16.10;87.20
13251;DHT22;6692;50.710;7.180;2023-04-06T13:00:15;16.00;85.80
13251;DHT22;6692;50.710;7.180;2023-04-06T13:02:16;16.00;89.20
13251;DHT22;6692;50.710;7.180;2023-04-06T13:04:16;16.00;89.30
13251;DHT22;6692;50.710;7.180;2023-04-06T13:06:17;16.00;84.90